createdAt,value
2023-01-11T00:00:56.689Z,95150.22
2023-01-11T00:03:23.763Z,95139.50
2023-01-11T00:05:50.832Z,95124.97
2023-01-11T00:08:19.320Z,95131.38
2023-01-11T00:10:46.007Z,95117.84
2023-01-11T00:13:14.025Z,95094.03
2023-01-11T00:15:40.803Z,95119.31
2023-01-11T00:18:07.890Z,95134.03
2023-01-11T00:20:34.755Z,95136.00
2023-01-11T00:23:01.463Z,95120.78
2023-01-11T00:25:28.398Z,95114.13
2023-01-11T00:27:55.524Z,95118.81
2023-01-11T00:30:22.691Z,95117.56
2023-01-11T00:32:50.007Z,95066.94
2023-01-11T00:35:16.762Z,95065.56
2023-01-11T00:37:43.866Z,95057.94
2023-01-11T00:40:11.011Z,95084.81
2023-01-11T00:42:56.657Z,95085.28
2023-01-11T00:45:42.313Z,95088.56
2023-01-11T00:48:10.895Z,95086.66
2023-01-11T00:50:39.578Z,95051.34
2023-01-11T00:53:07.820Z,95054.81
2023-01-11T00:55:35.598Z,95050.69
2023-01-11T00:58:02.853Z,95036.66
2023-01-11T01:00:29.644Z,95046.63
2023-01-11T01:02:56.903Z,95071.22
2023-01-11T01:05:23.792Z,95058.56
2023-01-11T01:07:50.774Z,95056.69
2023-01-11T01:10:19.477Z,95070.41
2023-01-11T01:13:04.680Z,95061.81
2023-01-11T01:15:31.923Z,95065.97
2023-01-11T01:17:58.756Z,95053.53
2023-01-11T01:20:25.961Z,95047.19
2023-01-11T01:22:52.880Z,95038.31
2023-01-11T01:25:19.891Z,95040.59
2023-01-11T01:27:46.766Z,95064.38
2023-01-11T01:30:14.532Z,95083.41
2023-01-11T01:32:41.288Z,95070.19
2023-01-11T01:35:08.729Z,95074.56
2023-01-11T01:37:35.601Z,95077.13
2023-01-11T01:40:02.363Z,95069.72
2023-01-11T01:42:29.214Z,95089.44
2023-01-11T01:45:03.280Z,95103.41
2023-01-11T01:47:36.711Z,95093.66
2023-01-11T01:50:10.314Z,95084.81
2023-01-11T01:52:37.067Z,95079.75
2023-01-11T01:55:09.940Z,95051.56
2023-01-11T01:57:40.189Z,95061.81
2023-01-11T02:00:10.512Z,95047.91
2023-01-11T02:02:39.734Z,95030.91
2023-01-11T02:05:07.947Z,95017.72
2023-01-11T02:07:38.050Z,95037.38
2023-01-11T02:10:10.457Z,95031.38
2023-01-11T02:12:41.095Z,95034.41
2023-01-11T02:15:10.209Z,95006.44
2023-01-11T02:17:36.944Z,95022.84
2023-01-11T02:20:15.398Z,95016.72
2023-01-11T02:22:54.086Z,95028.94
2023-01-11T02:25:54.485Z,95014.66
2023-01-11T02:28:53.662Z,95012.38
2023-01-11T02:31:39.177Z,94985.47
2023-01-11T02:34:12.042Z,94984.50
2023-01-11T02:37:03.592Z,94967.09
2023-01-11T02:39:37.239Z,94966.81
2023-01-11T02:43:01.625Z,94988.75
2023-01-11T02:45:46.833Z,94972.44
2023-01-11T02:48:16.325Z,94979.53
2023-01-11T02:50:52.134Z,94977.66
2023-01-11T02:53:39.729Z,94976.06
2023-01-11T02:56:12.208Z,94983.66
2023-01-11T02:58:42.496Z,94971.53
2023-01-11T03:01:09.765Z,94970.19
2023-01-11T03:03:37.122Z,94986.72
2023-01-11T03:06:20.927Z,94979.41
2023-01-11T03:09:08.700Z,94963.75
2023-01-11T03:12:15.924Z,94962.91
2023-01-11T03:15:20.283Z,94936.94
2023-01-11T03:18:24.688Z,94932.31
2023-01-11T03:21:00.799Z,94940.81
2023-01-11T03:23:45.452Z,94932.38
2023-01-11T03:26:24.353Z,94919.06
2023-01-11T03:29:16.059Z,94918.63
2023-01-11T03:32:25.801Z,94910.78
2023-01-11T03:34:59.252Z,94907.25
2023-01-11T03:37:32.115Z,94894.09
2023-01-11T03:40:08.719Z,94905.81
2023-01-11T03:42:59.287Z,94910.88
2023-01-11T03:45:28.919Z,94897.28
2023-01-11T03:47:57.208Z,94904.38
2023-01-11T03:50:26.766Z,94929.34
2023-01-11T03:52:56.064Z,94901.19
2023-01-11T03:55:26.747Z,94906.50
2023-01-11T03:57:55.021Z,94893.28
2023-01-11T04:00:24.687Z,94877.00
2023-01-11T04:02:53.979Z,94889.44
2023-01-11T04:05:21.133Z,94870.72
2023-01-11T04:07:47.845Z,94870.56
2023-01-11T04:10:14.797Z,94870.50
2023-01-11T04:12:41.648Z,94870.66
2023-01-11T04:15:09.495Z,94891.38
2023-01-11T04:17:36.278Z,94876.81
2023-01-11T04:20:03.077Z,94865.06
2023-01-11T04:22:29.757Z,94887.19
2023-01-11T04:24:56.626Z,94903.25
2023-01-11T04:27:23.367Z,94880.00
2023-01-11T04:29:50.058Z,94886.19
2023-01-11T04:32:16.872Z,94883.28
2023-01-11T04:34:43.813Z,94872.34
2023-01-11T04:37:12.115Z,94852.25
2023-01-11T04:39:39.197Z,94851.66
2023-01-11T04:42:18.413Z,94866.53
2023-01-11T04:44:48.035Z,94854.28
2023-01-11T04:47:16.055Z,94841.34
2023-01-11T04:49:43.002Z,94852.16
2023-01-11T04:52:12.154Z,94844.09
2023-01-11T04:54:39.825Z,94838.75
2023-01-11T04:57:09.272Z,94822.34
2023-01-11T04:59:36.725Z,94828.03
2023-01-11T05:02:03.426Z,94822.84
2023-01-11T05:04:30.639Z,94835.25
2023-01-11T05:06:57.450Z,94844.28
2023-01-11T05:09:24.399Z,94865.38
2023-01-11T05:11:51.773Z,94869.50
2023-01-11T05:14:18.615Z,94864.88
2023-01-11T05:16:45.639Z,94852.03
2023-01-11T05:19:13.059Z,94869.81
2023-01-11T05:21:41.411Z,94831.81
2023-01-11T05:24:14.138Z,94839.56
2023-01-11T05:26:43.370Z,94860.03
2023-01-11T05:29:14.193Z,94846.97
2023-01-11T05:31:41.225Z,94830.16
2023-01-11T05:34:12.040Z,94812.63
2023-01-11T05:36:39.704Z,94811.56
2023-01-11T05:39:06.979Z,94825.94
2023-01-11T05:41:35.549Z,94816.84
2023-01-11T05:44:21.604Z,94793.78
2023-01-11T05:46:48.480Z,94801.84
2023-01-11T05:49:16.260Z,94820.69
2023-01-11T05:51:44.033Z,94836.41
2023-01-11T05:54:13.606Z,94805.69
2023-01-11T05:56:42.462Z,94811.63
2023-01-11T05:59:09.750Z,94796.69
2023-01-11T06:01:37.403Z,94809.25
2023-01-11T06:04:04.516Z,94815.38
2023-01-11T06:06:32.485Z,94814.44
2023-01-11T06:08:59.185Z,94814.00
2023-01-11T06:11:25.967Z,94832.19
2023-01-11T06:13:52.809Z,94817.66
2023-01-11T06:16:22.625Z,94814.63
2023-01-11T06:18:52.209Z,94818.81
2023-01-11T06:21:19.875Z,94831.41
2023-01-11T06:23:51.130Z,94798.56
2023-01-11T06:26:20.900Z,94810.38
2023-01-11T06:28:48.094Z,94823.41
2023-01-11T06:31:17.346Z,94805.47
2023-01-11T06:33:45.472Z,94828.34
2023-01-11T06:36:13.877Z,94797.16
2023-01-11T06:38:41.532Z,94791.19
2023-01-11T06:41:09.393Z,94791.03
2023-01-11T06:43:38.056Z,94788.81
2023-01-11T06:46:05.454Z,94796.00
2023-01-11T06:48:32.627Z,94786.50
2023-01-11T06:51:00.031Z,94789.72
2023-01-11T06:53:29.372Z,94806.09
2023-01-11T06:55:58.259Z,94801.53
2023-01-11T06:58:26.310Z,94795.44
2023-01-11T07:00:55.849Z,94790.63
2023-01-11T07:03:24.450Z,94780.69
2023-01-11T07:05:53.211Z,94788.59
2023-01-11T07:08:20.630Z,94791.41
2023-01-11T07:10:48.128Z,94798.81
2023-01-11T07:13:18.599Z,94779.91
2023-01-11T07:15:48.444Z,94790.81
2023-01-11T07:18:15.368Z,94779.59
2023-01-11T07:20:42.494Z,94782.19
2023-01-11T07:23:10.840Z,94804.47
2023-01-11T07:25:38.095Z,94826.97
2023-01-11T07:28:08.354Z,94793.31
2023-01-11T07:30:55.474Z,94819.13
2023-01-11T07:33:23.536Z,94808.53
2023-01-11T07:35:50.283Z,94814.28
2023-01-11T07:38:17.465Z,94815.25
2023-01-11T07:40:44.193Z,94819.63
2023-01-11T07:43:15.118Z,94830.31
2023-01-11T07:45:46.472Z,94834.31
2023-01-11T07:48:14.469Z,94827.69
2023-01-11T07:50:44.724Z,94835.78
2023-01-11T07:53:12.613Z,94828.88
2023-01-11T07:55:41.125Z,94826.47
2023-01-11T07:58:11.611Z,94830.13
2023-01-11T08:00:40.700Z,94841.13
2023-01-11T08:03:08.285Z,94857.31
2023-01-11T08:05:35.224Z,94849.00
2023-01-11T08:08:02.399Z,94847.53
2023-01-11T08:10:29.460Z,94850.44
2023-01-11T08:13:14.932Z,94852.97
2023-01-11T08:15:42.777Z,94849.50
2023-01-11T08:18:11.839Z,94822.97
2023-01-11T08:20:40.005Z,94819.72
2023-01-11T08:23:08.988Z,94808.59
2023-01-11T08:25:35.912Z,94828.28
2023-01-11T08:28:04.551Z,94810.88
2023-01-11T08:30:32.158Z,94815.28
2023-01-11T08:33:01.776Z,94806.47
2023-01-11T08:35:29.231Z,94813.03
2023-01-11T08:37:56.345Z,94803.78
2023-01-11T08:40:26.108Z,94810.03
2023-01-11T08:42:57.353Z,94791.78
2023-01-11T08:45:25.145Z,94832.91
2023-01-11T08:47:52.566Z,94813.03
2023-01-11T08:50:21.967Z,94812.50
2023-01-11T08:52:50.905Z,94831.19
2023-01-11T08:55:19.621Z,94804.25
2023-01-11T08:57:46.479Z,94826.63
2023-01-11T09:00:14.277Z,94830.50
2023-01-11T09:02:41.495Z,94808.34
2023-01-11T09:05:09.272Z,94796.22
2023-01-11T09:07:35.998Z,94775.75
2023-01-11T09:10:03.257Z,94799.44
2023-01-11T09:12:32.496Z,94768.72
2023-01-11T09:14:59.821Z,94774.25
2023-01-11T09:17:26.814Z,94760.38
2023-01-11T09:19:54.449Z,94752.34
2023-01-11T09:22:21.274Z,94785.72
2023-01-11T09:24:48.388Z,94788.66
2023-01-11T09:27:15.366Z,94789.03
2023-01-11T09:29:42.154Z,94771.44
2023-01-11T09:32:09.592Z,94774.44
2023-01-11T09:34:36.753Z,94800.34
2023-01-11T09:37:06.862Z,94790.50
2023-01-11T09:39:35.141Z,94805.78
2023-01-11T09:42:15.264Z,94813.25
2023-01-11T09:44:54.817Z,94801.84
2023-01-11T09:47:42.781Z,94774.28
2023-01-11T09:50:28.736Z,94761.59
2023-01-11T09:53:03.633Z,94800.03
2023-01-11T09:55:59.759Z,94820.75
2023-01-11T09:58:46.855Z,94814.75
2023-01-11T10:01:38.314Z,94822.38
2023-01-11T10:04:43.001Z,94825.59
2023-01-11T10:07:14.317Z,94785.81
2023-01-11T10:18:37.853Z,94797.91
2023-01-11T10:19:30.343Z,94777.00
2023-01-11T10:22:00.247Z,94765.66
2023-01-11T10:24:31.795Z,94777.91
2023-01-11T10:27:04.172Z,94788.22
2023-01-11T10:29:42.391Z,94771.06
2023-01-11T10:32:34.281Z,94779.03
2023-01-11T10:35:53.671Z,94783.50
2023-01-11T10:38:50.937Z,94793.59
2023-01-11T10:41:34.241Z,94776.22
2023-01-11T10:44:05.116Z,94776.38
2023-01-11T10:46:36.074Z,94780.06
2023-01-11T10:49:28.515Z,94794.63
2023-01-11T10:52:03.510Z,94812.78
2023-01-11T10:54:33.387Z,94782.22
2023-01-11T10:57:04.739Z,94790.69
2023-01-11T10:59:44.479Z,94756.13
2023-01-11T11:02:11.500Z,94775.56
2023-01-11T11:04:41.255Z,94770.47
2023-01-11T11:07:21.040Z,94770.03
2023-01-11T11:10:12.561Z,94763.94
2023-01-11T11:12:46.922Z,94768.97
2023-01-11T11:15:31.970Z,94761.81
2023-01-11T11:17:58.897Z,94764.53
2023-01-11T11:20:30.740Z,94755.19
2023-01-11T11:22:57.917Z,94769.81
2023-01-11T11:25:35.569Z,94750.88
2023-01-11T11:28:15.230Z,94773.97
2023-01-11T11:30:44.050Z,94759.47
2023-01-11T11:33:22.668Z,94764.59
2023-01-11T11:36:05.010Z,94751.63
2023-01-11T11:38:37.805Z,94760.63
2023-01-11T11:41:10.721Z,94754.06
2023-01-11T11:43:40.454Z,94757.75
2023-01-11T11:46:20.286Z,94758.16
2023-01-11T11:49:12.638Z,94733.25
2023-01-11T11:51:41.641Z,94733.69
2023-01-11T11:54:28.683Z,94745.81
2023-01-11T11:56:58.913Z,94749.22
2023-01-11T11:59:30.143Z,94764.84
2023-01-11T12:02:02.155Z,94743.47
2023-01-11T12:04:44.328Z,94773.34
2023-01-11T12:07:17.244Z,94753.88
2023-01-11T12:09:48.206Z,94749.38
2023-01-11T12:12:21.806Z,94723.41
2023-01-11T12:15:18.364Z,94735.81
2023-01-11T12:17:45.449Z,94733.97
2023-01-11T12:20:21.344Z,94724.47
2023-01-11T12:22:49.393Z,94716.69
2023-01-11T12:25:26.947Z,94710.31
2023-01-11T12:28:28.332Z,94707.47
2023-01-11T12:31:19.569Z,94695.94
2023-01-11T12:34:30.711Z,94721.63
2023-01-11T12:37:27.145Z,94710.59
2023-01-11T12:39:53.809Z,94724.03
2023-01-11T12:42:43.414Z,94704.97
2023-01-11T12:45:51.705Z,94677.34
2023-01-11T12:48:36.674Z,94682.94
2023-01-11T12:51:15.493Z,94693.41
2023-01-11T12:53:42.464Z,94703.91
2023-01-11T12:57:02.743Z,94688.25
2023-01-11T12:59:42.310Z,94686.34
2023-01-11T13:02:12.433Z,94685.09
2023-01-11T13:05:01.988Z,94696.59
2023-01-11T13:07:50.777Z,94688.34
2023-01-11T13:10:49.548Z,94680.50
2023-01-11T13:13:23.894Z,94687.19
2023-01-11T13:16:07.277Z,94682.38
2023-01-11T13:19:07.587Z,94675.47
2023-01-11T13:21:44.364Z,94665.53
2023-01-11T13:24:16.961Z,94667.13
2023-01-11T13:26:50.651Z,94669.38
2023-01-11T13:29:28.965Z,94664.78
2023-01-11T13:31:59.993Z,94670.63
2023-01-11T13:34:35.035Z,94675.06
2023-01-11T13:37:20.209Z,94670.94
2023-01-11T13:39:55.497Z,94641.00
2023-01-11T13:42:30.605Z,94651.47
2023-01-11T13:45:03.292Z,94634.47
2023-01-11T13:47:37.492Z,94660.03
2023-01-11T13:50:29.334Z,94647.88
2023-01-11T13:53:03.850Z,94662.28
2023-01-11T13:55:36.395Z,94675.41
2023-01-11T13:58:06.495Z,94662.94
2023-01-11T14:00:42.907Z,94662.91
2023-01-11T14:03:21.625Z,94684.91
2023-01-11T14:06:00.417Z,94659.91
2023-01-11T14:08:51.540Z,94673.06
2023-01-11T14:11:31.512Z,94677.66
2023-01-11T14:14:22.788Z,94666.25
2023-01-11T14:17:13.227Z,94688.75
2023-01-11T14:20:12.377Z,94669.72
2023-01-11T14:23:05.345Z,94672.59
2023-01-11T14:25:56.276Z,94709.38
2023-01-11T14:28:46.030Z,94677.59
2023-01-11T14:31:41.086Z,94684.53
2023-01-11T14:34:44.196Z,94696.63
2023-01-11T14:37:23.733Z,94696.78
2023-01-11T14:40:05.821Z,94681.13
2023-01-11T14:42:52.671Z,94670.91
2023-01-11T14:45:33.853Z,94683.19
2023-01-11T14:48:09.717Z,94685.31
2023-01-11T14:51:14.726Z,94680.63
2023-01-11T14:53:50.147Z,94688.91
2023-01-11T14:56:43.608Z,94673.06
2023-01-11T14:59:31.653Z,94677.81
2023-01-11T15:02:04.854Z,94668.66
2023-01-11T15:04:52.255Z,94660.53
2023-01-11T15:07:31.277Z,94646.84
2023-01-11T15:10:00.300Z,94641.44
2023-01-11T15:12:38.519Z,94651.22
2023-01-11T15:15:07.367Z,94631.78
2023-01-11T15:17:53.019Z,94635.31
2023-01-11T15:20:22.326Z,94627.88
2023-01-11T15:22:58.702Z,94643.28
2023-01-11T15:25:33.634Z,94626.72
2023-01-11T15:28:48.903Z,94633.06
2023-01-11T15:31:30.538Z,94621.06
2023-01-11T15:34:18.583Z,94612.69
2023-01-11T15:37:00.620Z,94625.81
2023-01-11T15:39:54.474Z,94635.59
2023-01-11T15:42:42.087Z,94626.16
2023-01-11T15:46:14.406Z,94614.38
2023-01-11T15:48:44.243Z,94591.06
2023-01-11T15:51:25.210Z,94632.59
2023-01-11T15:54:10.637Z,94627.34
2023-01-11T15:57:07.924Z,94631.25
2023-01-11T15:59:37.945Z,94645.00
2023-01-11T16:02:14.445Z,94638.09
2023-01-11T16:05:14.379Z,94667.72
2023-01-11T16:07:57.538Z,94635.69
2023-01-11T16:10:45.676Z,94623.16
2023-01-11T16:13:24.451Z,94664.13
2023-01-11T16:16:05.018Z,94657.03
2023-01-11T16:18:45.662Z,94629.50
2023-01-11T16:21:27.305Z,94646.34
2023-01-11T16:23:55.424Z,94661.06
2023-01-11T16:26:23.205Z,94641.84
2023-01-11T16:28:57.428Z,94674.56
2023-01-11T16:31:25.512Z,94667.84
2023-01-11T16:33:53.365Z,94667.75
2023-01-11T16:36:22.295Z,94679.75
2023-01-11T16:39:10.310Z,94681.94
2023-01-11T16:41:59.719Z,94690.84
2023-01-11T16:44:40.570Z,94654.03
2023-01-11T16:47:11.260Z,94697.13
2023-01-11T16:49:39.192Z,94663.50
2023-01-11T16:52:38.957Z,94672.34
2023-01-11T16:55:21.145Z,94684.38
2023-01-11T16:57:53.503Z,94697.28
2023-01-11T17:00:24.302Z,94695.47
2023-01-11T17:03:18.332Z,94740.56
2023-01-11T17:06:01.291Z,94741.22
2023-01-11T17:08:32.895Z,94716.50
2023-01-11T17:11:04.801Z,94723.00
2023-01-11T17:13:55.250Z,94698.78
2023-01-11T17:16:26.517Z,94721.88
2023-01-11T17:18:54.607Z,94736.91
2023-01-11T17:21:29.984Z,94725.81
2023-01-11T17:24:03.207Z,94765.16
2023-01-11T17:26:36.736Z,94765.47
2023-01-11T17:29:05.310Z,94731.41
2023-01-11T17:31:36.163Z,94757.06
2023-01-11T17:34:16.288Z,94757.00
2023-01-11T17:36:46.106Z,94771.06
2023-01-11T17:39:30.189Z,94732.63
2023-01-11T17:42:17.445Z,94770.31
2023-01-11T17:45:06.181Z,94744.66
2023-01-11T17:47:34.739Z,94746.84
2023-01-11T17:50:04.012Z,94768.47
2023-01-11T17:52:43.889Z,94793.06
2023-01-11T17:55:20.615Z,94767.28
2023-01-11T17:58:19.003Z,94772.66
2023-01-11T18:01:16.866Z,94755.88
2023-01-11T18:03:51.010Z,94783.38
2023-01-11T18:06:45.180Z,94812.81
2023-01-11T18:09:45.283Z,94767.53
2023-01-11T18:12:20.892Z,94780.84
2023-01-11T18:14:53.403Z,94779.47
2023-01-11T18:17:32.632Z,94792.63
2023-01-11T18:20:01.353Z,94799.91
2023-01-11T18:22:37.452Z,94800.56
2023-01-11T18:25:24.934Z,94786.75
2023-01-11T18:27:52.110Z,94814.06
2023-01-11T18:30:41.060Z,94839.19
2023-01-11T18:33:19.782Z,94820.38
2023-01-11T18:35:49.077Z,94845.19
2023-01-11T18:38:17.979Z,94866.41
2023-01-11T18:40:46.929Z,94823.34
2023-01-11T18:43:15.695Z,94849.47
2023-01-11T18:45:42.654Z,94811.63
2023-01-11T18:48:14.274Z,94870.78
2023-01-11T18:50:42.619Z,94879.56
2023-01-11T18:53:14.316Z,94876.25
2023-01-11T18:55:41.321Z,94856.75
2023-01-11T18:58:10.482Z,94898.25
2023-01-11T19:00:38.559Z,94899.16
2023-01-11T19:03:06.287Z,94900.31
2023-01-11T19:05:33.206Z,94924.63
2023-01-11T19:08:01.877Z,94892.03
2023-01-11T19:10:31.448Z,94917.28
2023-01-11T19:12:58.320Z,94924.91
2023-01-11T19:15:26.450Z,94937.81
2023-01-11T19:17:53.384Z,94961.41
2023-01-11T19:20:21.663Z,94948.97
2023-01-11T19:22:48.968Z,94970.69
2023-01-11T19:25:17.734Z,94944.94
2023-01-11T19:27:44.876Z,94924.66
2023-01-11T19:30:12.800Z,94916.34
2023-01-11T19:32:39.548Z,94917.03
2023-01-11T19:35:08.300Z,94947.97
2023-01-11T19:37:37.823Z,94918.59
2023-01-11T19:40:05.958Z,94968.88
2023-01-11T19:42:32.814Z,94982.25
2023-01-11T19:45:00.039Z,94972.28
2023-01-11T19:47:28.251Z,94944.91
2023-01-11T19:49:58.895Z,94945.03
2023-01-11T19:52:26.968Z,94972.91
2023-01-11T19:54:56.891Z,94979.69
2023-01-11T19:57:23.793Z,94994.03
2023-01-11T19:59:50.948Z,94997.28
2023-01-11T20:02:20.599Z,95019.66
2023-01-11T20:04:48.010Z,94997.34
2023-01-11T20:07:15.410Z,94983.66
2023-01-11T20:09:43.576Z,95003.41
2023-01-11T20:12:11.976Z,95007.22
2023-01-11T20:14:40.976Z,94980.44
2023-01-11T20:17:08.606Z,95014.38
2023-01-11T20:19:35.881Z,94981.94
2023-01-11T20:22:08.131Z,95011.44
2023-01-11T20:24:34.884Z,95015.84
2023-01-11T20:27:03.002Z,95030.13
2023-01-11T20:29:31.881Z,95002.75
2023-01-11T20:32:18.567Z,95031.69
2023-01-11T20:34:46.419Z,95038.56
2023-01-11T20:37:15.472Z,95033.47
2023-01-11T20:39:42.316Z,95034.25
2023-01-11T20:42:09.954Z,95009.28
2023-01-11T20:44:36.816Z,95034.84
2023-01-11T20:47:03.693Z,95025.28
2023-01-11T20:49:30.622Z,95031.19
2023-01-11T20:51:57.554Z,95029.13
2023-01-11T20:54:24.351Z,95039.06
2023-01-11T20:56:52.338Z,95031.31
2023-01-11T20:59:20.489Z,95040.81
2023-01-11T21:01:48.940Z,95008.91
2023-01-11T21:04:18.312Z,95026.56
2023-01-11T21:06:48.208Z,95058.44
2023-01-11T21:09:17.840Z,95051.34
2023-01-11T21:11:52.652Z,95075.53
2023-01-11T21:14:21.301Z,95072.66
2023-01-11T21:16:48.593Z,95046.56
2023-01-11T21:19:15.952Z,95051.44
2023-01-11T21:21:43.646Z,95045.34
2023-01-11T21:24:13.606Z,95017.47
2023-01-11T21:26:42.353Z,95039.69
2023-01-11T21:29:10.671Z,95052.50
2023-01-11T21:31:38.542Z,95054.41
2023-01-11T21:34:05.821Z,95023.03
2023-01-11T21:36:33.052Z,95037.94
2023-01-11T21:39:00.835Z,95071.03
2023-01-11T21:41:48.910Z,95058.94
2023-01-11T21:44:17.292Z,95092.78
2023-01-11T21:46:45.358Z,95115.44
2023-01-11T21:49:13.157Z,95067.88
2023-01-11T21:51:40.580Z,95066.22
2023-01-11T21:54:11.795Z,95053.75
2023-01-11T21:56:38.803Z,95119.75
2023-01-11T21:59:05.591Z,95135.13
2023-01-11T22:01:32.335Z,95128.78
2023-01-11T22:03:59.814Z,95113.06
2023-01-11T22:06:26.905Z,95126.19
2023-01-11T22:08:53.779Z,95108.16
2023-01-11T22:11:20.537Z,95104.41
2023-01-11T22:13:47.571Z,95121.84
2023-01-11T22:16:17.457Z,95140.53
2023-01-11T22:18:46.131Z,95088.97
2023-01-11T22:21:16.072Z,95089.97
2023-01-11T22:23:42.795Z,95092.47
2023-01-11T22:26:13.763Z,95097.94
2023-01-11T22:29:00.091Z,95065.47
2023-01-11T22:31:28.383Z,95101.75
2023-01-11T22:33:56.138Z,95084.19
2023-01-11T22:36:24.888Z,95108.41
2023-01-11T22:38:53.260Z,95071.94
2023-01-11T22:41:21.162Z,95100.69
2023-01-11T22:43:48.545Z,95108.25
2023-01-11T22:46:23.937Z,95083.84
2023-01-11T22:48:51.623Z,95127.66
2023-01-11T22:51:24.388Z,95113.81
2023-01-11T22:53:53.170Z,95123.81
2023-01-11T22:56:22.398Z,95111.06
2023-01-11T22:58:52.650Z,95141.50
2023-01-11T23:01:26.256Z,95114.81
2023-01-11T23:03:54.955Z,95136.41
2023-01-11T23:06:25.204Z,95115.91
2023-01-11T23:08:52.940Z,95125.28
2023-01-11T23:11:43.323Z,95083.56
2023-01-11T23:14:12.809Z,95137.75
2023-01-11T23:16:39.778Z,95149.94
2023-01-11T23:19:07.767Z,95139.94
2023-01-11T23:21:35.402Z,95158.72
2023-01-11T23:24:02.893Z,95178.63
2023-01-11T23:26:29.859Z,95177.34
2023-01-11T23:28:56.649Z,95175.59
2023-01-11T23:31:25.217Z,95174.34
2023-01-11T23:33:57.589Z,95194.34
2023-01-11T23:36:28.443Z,95192.19
2023-01-11T23:38:55.229Z,95163.59
2023-01-11T23:41:40.731Z,95155.75
2023-01-11T23:44:09.944Z,95160.91
2023-01-11T23:46:56.470Z,95131.47
2023-01-11T23:49:26.984Z,95159.47
2023-01-11T23:51:55.410Z,95190.09
2023-01-11T23:54:22.966Z,95177.84
2023-01-11T23:56:49.977Z,95189.78
2023-01-11T23:59:17.174Z,95167.19
